createdAt,value
2023-05-19T00:02:05.751Z,3.90
2023-05-19T00:04:36.561Z,4.07
2023-05-19T00:07:08.427Z,3.60
2023-05-19T00:09:38.880Z,2.77
2023-05-19T00:12:13.476Z,2.93
2023-05-19T00:14:44.039Z,3.03
2023-05-19T00:17:14.575Z,3.10
2023-05-19T00:19:45.403Z,2.80
2023-05-19T00:22:15.220Z,3.23
2023-05-19T00:24:45.202Z,2.80
2023-05-19T00:27:17.594Z,3.00
2023-05-19T00:29:47.418Z,3.03
2023-05-19T00:32:17.356Z,3.20
2023-05-19T00:34:48.584Z,2.70
2023-05-19T00:37:18.389Z,3.00
2023-05-19T00:39:48.311Z,3.80
2023-05-19T00:42:21.227Z,3.10
2023-05-19T00:44:51.013Z,2.90
2023-05-19T00:47:20.884Z,3.67
2023-05-19T00:49:50.817Z,3.33
2023-05-19T00:52:20.810Z,2.90
2023-05-19T00:54:51.768Z,3.20
2023-05-19T00:57:24.776Z,3.20
2023-05-19T00:59:54.746Z,3.80
2023-05-19T01:02:24.752Z,3.80
2023-05-19T01:04:55.633Z,4.33
2023-05-19T01:07:25.668Z,3.73
2023-05-19T01:09:55.664Z,3.10
2023-05-19T01:12:29.377Z,2.80
2023-05-19T01:15:01.367Z,3.33
2023-05-19T01:17:40.508Z,3.47
2023-05-19T01:20:20.020Z,4.10
2023-05-19T01:23:21.668Z,3.90
2023-05-19T01:26:22.432Z,3.37
2023-05-19T01:29:37.781Z,3.13
2023-05-19T01:32:12.232Z,3.80
2023-05-19T01:34:46.357Z,3.40
2023-05-19T01:37:17.777Z,3.77
2023-05-19T01:39:51.195Z,3.60
2023-05-19T01:42:22.205Z,4.27
2023-05-19T01:44:52.664Z,4.97
2023-05-19T01:47:25.921Z,3.50
2023-05-19T01:49:55.769Z,4.00
2023-05-19T01:52:25.646Z,3.90
2023-05-19T01:54:55.486Z,3.60
2023-05-19T01:57:33.888Z,3.90
2023-05-19T02:00:13.861Z,3.70
2023-05-19T02:03:00.794Z,3.63
2023-05-19T02:05:38.395Z,4.10
2023-05-19T02:08:16.153Z,3.97
2023-05-19T02:10:51.550Z,3.13
2023-05-19T02:13:27.235Z,3.20
2023-05-19T02:16:02.647Z,3.83
2023-05-19T02:18:36.461Z,3.70
2023-05-19T02:21:06.441Z,3.93
2023-05-19T02:23:36.255Z,3.47
2023-05-19T02:26:06.254Z,3.73
2023-05-19T02:28:36.791Z,3.07
2023-05-19T02:31:09.173Z,3.40
2023-05-19T02:33:43.119Z,3.27
2023-05-19T02:36:14.695Z,3.90
2023-05-19T02:38:44.599Z,4.30
2023-05-19T02:41:14.393Z,4.60
2023-05-19T02:43:44.218Z,3.63
2023-05-19T02:46:14.123Z,3.90
2023-05-19T02:48:46.723Z,3.30
2023-05-19T02:51:16.564Z,3.90
2023-05-19T02:53:46.491Z,3.37
2023-05-19T02:56:16.351Z,3.43
2023-05-19T02:58:46.201Z,4.20
2023-05-19T03:01:16.756Z,3.90
2023-05-19T03:03:49.390Z,4.00
2023-05-19T03:06:19.370Z,4.10
2023-05-19T03:08:49.187Z,3.57
2023-05-19T03:11:19.089Z,4.50
2023-05-19T03:13:49.061Z,4.57
2023-05-19T03:16:19.283Z,4.10
2023-05-19T03:18:52.481Z,4.13
2023-05-19T03:21:22.327Z,4.50
2023-05-19T03:23:52.119Z,3.60
2023-05-19T03:26:23.274Z,3.43
2023-05-19T03:28:53.255Z,4.27
2023-05-19T03:31:23.134Z,4.00
2023-05-19T03:33:55.819Z,10.40
2023-05-19T03:36:26.423Z,5.90
2023-05-19T03:38:56.371Z,6.83
2023-05-19T03:41:26.526Z,6.00
2023-05-19T03:43:56.374Z,4.50
2023-05-19T03:46:26.535Z,5.10
2023-05-19T03:49:15.256Z,4.80
2023-05-19T03:52:04.137Z,4.20
2023-05-19T03:54:57.904Z,4.67
2023-05-19T03:57:27.856Z,4.70
2023-05-19T03:59:57.678Z,3.90
2023-05-19T04:02:27.667Z,4.73
2023-05-19T04:05:00.264Z,4.70
2023-05-19T04:07:30.056Z,4.63
2023-05-19T04:10:00.308Z,5.03
2023-05-19T04:12:31.314Z,4.53
2023-05-19T04:15:01.284Z,4.17
2023-05-19T04:17:31.835Z,3.90
2023-05-19T04:20:04.998Z,4.53
2023-05-19T04:22:34.918Z,3.00
2023-05-19T04:25:05.172Z,3.73
2023-05-19T04:27:36.864Z,4.40
2023-05-19T04:30:07.244Z,4.93
2023-05-19T04:32:37.741Z,2.90
2023-05-19T04:35:13.860Z,3.53
2023-05-19T04:37:46.162Z,3.50
2023-05-19T04:40:17.563Z,4.37
2023-05-19T04:42:49.966Z,4.20
2023-05-19T04:45:21.195Z,3.63
2023-05-19T04:47:58.781Z,3.27
2023-05-19T04:50:33.065Z,3.93
2023-05-19T04:53:03.582Z,3.67
2023-05-19T04:55:34.437Z,4.30
2023-05-19T04:58:04.539Z,4.27
2023-05-19T05:00:36.035Z,4.20
2023-05-19T05:03:09.456Z,4.37
2023-05-19T05:05:41.931Z,3.70
2023-05-19T05:08:15.547Z,4.17
2023-05-19T05:10:46.495Z,4.47
2023-05-19T05:13:16.997Z,4.33
2023-05-19T05:15:47.520Z,4.90
2023-05-19T05:18:18.959Z,4.77
2023-05-19T05:20:52.079Z,4.03
2023-05-19T05:23:23.126Z,4.30
2023-05-19T05:25:54.399Z,4.40
2023-05-19T05:28:25.445Z,4.93
2023-05-19T05:30:57.554Z,5.10
2023-05-19T05:33:27.873Z,4.97
2023-05-19T05:36:00.404Z,5.00
2023-05-19T05:38:31.719Z,5.40
2023-05-19T05:41:03.294Z,4.40
2023-05-19T05:43:34.107Z,4.77
2023-05-19T05:46:06.580Z,4.30
2023-05-19T05:48:37.376Z,6.00
2023-05-19T05:51:11.460Z,4.57
2023-05-19T05:53:45.798Z,5.60
2023-05-19T05:56:17.922Z,4.10
2023-05-19T05:58:53.939Z,4.80
2023-05-19T06:01:24.639Z,4.03
2023-05-19T06:03:55.438Z,4.73
2023-05-19T06:06:30.079Z,4.47
2023-05-19T06:08:59.992Z,5.30
2023-05-19T06:11:31.409Z,4.93
2023-05-19T06:14:02.322Z,5.20
2023-05-19T06:16:50.933Z,4.63
2023-05-19T06:19:21.841Z,4.47
2023-05-19T06:21:54.459Z,4.67
2023-05-19T06:24:24.304Z,4.40
2023-05-19T06:26:54.143Z,4.53
2023-05-19T06:29:24.082Z,4.27
2023-05-19T06:31:56.480Z,4.40
2023-05-19T06:34:27.094Z,4.63
2023-05-19T06:36:59.667Z,4.00
2023-05-19T06:39:30.240Z,4.50
2023-05-19T06:42:00.170Z,4.00
2023-05-19T06:44:49.925Z,3.70
2023-05-19T06:47:20.288Z,4.13
2023-05-19T06:49:55.594Z,4.27
2023-05-19T06:52:31.438Z,4.80
2023-05-19T06:55:02.781Z,5.23
2023-05-19T06:57:34.172Z,4.20
2023-05-19T07:00:05.948Z,3.13
2023-05-19T07:02:35.976Z,4.60
2023-05-19T07:05:08.366Z,4.13
2023-05-19T07:07:41.973Z,4.23
2023-05-19T07:10:15.916Z,3.70
2023-05-19T07:12:46.423Z,4.37
2023-05-19T07:15:20.484Z,5.27
2023-05-19T07:17:51.158Z,4.20
2023-05-19T07:20:21.493Z,5.00
2023-05-19T07:22:54.072Z,4.57
2023-05-19T07:25:23.974Z,4.50
2023-05-19T07:27:53.775Z,4.73
2023-05-19T07:30:23.663Z,5.17
2023-05-19T07:32:53.515Z,4.20
2023-05-19T07:35:24.701Z,3.87
2023-05-19T07:37:57.147Z,4.70
2023-05-19T07:40:27.094Z,4.83
2023-05-19T07:42:56.949Z,3.90
2023-05-19T07:45:26.828Z,4.13
2023-05-19T07:47:56.822Z,4.10
2023-05-19T07:50:26.983Z,4.77
2023-05-19T07:52:59.453Z,3.30
2023-05-19T07:55:29.389Z,4.60
2023-05-19T07:57:59.233Z,5.00
2023-05-19T08:00:29.404Z,4.30
2023-05-19T08:03:00.096Z,3.93
2023-05-19T08:05:30.064Z,3.73
2023-05-19T08:08:02.895Z,3.60
2023-05-19T08:10:32.965Z,3.50
2023-05-19T08:13:02.994Z,4.17
2023-05-19T08:15:32.919Z,5.87
2023-05-19T08:18:03.507Z,5.53
2023-05-19T08:20:34.381Z,4.03
2023-05-19T08:23:07.422Z,4.07
2023-05-19T08:25:37.189Z,4.20
2023-05-19T08:28:07.342Z,4.00
2023-05-19T08:30:37.164Z,3.87
2023-05-19T08:33:07.307Z,4.03
2023-05-19T08:35:38.158Z,4.77
2023-05-19T08:38:11.302Z,4.40
2023-05-19T08:40:44.462Z,5.00
2023-05-19T08:43:14.789Z,5.20
2023-05-19T08:45:48.409Z,4.00
2023-05-19T08:48:20.933Z,4.67
2023-05-19T08:50:59.501Z,2.83
2023-05-19T08:53:39.210Z,4.97
2023-05-19T08:56:14.563Z,3.67
2023-05-19T08:58:45.283Z,4.53
2023-05-19T09:01:17.441Z,3.40
2023-05-19T09:03:50.202Z,3.30
2023-05-19T09:06:20.396Z,3.80
2023-05-19T09:08:52.808Z,3.43
2023-05-19T09:11:22.754Z,3.30
2023-05-19T09:13:53.156Z,3.27
2023-05-19T09:16:23.882Z,3.30
2023-05-19T09:18:58.217Z,3.60
2023-05-19T09:21:33.244Z,3.27
2023-05-19T09:24:10.836Z,3.40
2023-05-19T09:26:42.095Z,3.90
2023-05-19T09:29:15.710Z,3.60
2023-05-19T09:31:52.071Z,3.93
2023-05-19T09:34:22.478Z,2.70
2023-05-19T09:36:53.827Z,3.30
2023-05-19T09:39:26.949Z,3.60
2023-05-19T09:41:58.720Z,2.80
2023-05-19T09:44:31.476Z,3.40
2023-05-19T09:47:02.439Z,3.37
2023-05-19T09:49:33.298Z,3.10
2023-05-19T09:52:06.042Z,3.40
2023-05-19T09:54:38.490Z,3.27
2023-05-19T09:57:09.610Z,3.27
2023-05-19T09:59:39.943Z,2.57
2023-05-19T10:02:17.993Z,3.60
2023-05-19T10:04:49.282Z,2.80
2023-05-19T10:07:20.446Z,2.33
2023-05-19T10:09:54.346Z,2.50
2023-05-19T10:12:25.873Z,2.50
2023-05-19T10:14:57.201Z,2.90
2023-05-19T10:17:28.887Z,2.50
2023-05-19T10:19:58.727Z,2.53
2023-05-19T10:22:28.659Z,2.20
2023-05-19T10:25:01.306Z,2.57
2023-05-19T10:27:33.499Z,2.30
2023-05-19T10:30:10.820Z,1.90
2023-05-19T10:32:44.785Z,2.90
2023-05-19T10:35:37.686Z,3.80
2023-05-19T10:38:19.378Z,2.43
2023-05-19T10:41:02.394Z,2.77
2023-05-19T10:43:47.457Z,2.93
2023-05-19T10:46:22.735Z,2.77
2023-05-19T10:48:52.976Z,2.17
2023-05-19T10:51:22.869Z,1.90
2023-05-19T10:53:54.325Z,2.40
2023-05-19T10:56:36.663Z,2.33
2023-05-19T10:59:06.744Z,1.93
2023-05-19T11:01:39.121Z,2.23
2023-05-19T11:04:12.406Z,2.50
2023-05-19T11:06:43.107Z,2.23
2023-05-19T11:09:16.304Z,2.50
2023-05-19T11:11:51.009Z,2.37
2023-05-19T11:14:23.193Z,2.13
2023-05-19T11:16:54.902Z,2.30
2023-05-19T11:19:30.607Z,1.80
2023-05-19T11:22:10.326Z,2.07
2023-05-19T11:24:41.434Z,2.07
2023-05-19T11:27:29.024Z,2.00
2023-05-19T11:30:00.283Z,2.20
2023-05-19T11:32:32.053Z,1.57
2023-05-19T11:35:03.684Z,1.60
2023-05-19T11:37:35.987Z,2.00
2023-05-19T11:40:07.654Z,1.60
2023-05-19T11:42:40.087Z,1.70
2023-05-19T11:45:11.807Z,1.80
2023-05-19T11:47:57.193Z,2.00
2023-05-19T11:50:31.838Z,1.77
2023-05-19T11:53:04.038Z,1.37
2023-05-19T11:55:34.457Z,2.30
2023-05-19T11:58:07.392Z,1.90
2023-05-19T12:00:40.460Z,1.73
2023-05-19T12:03:11.734Z,1.60
2023-05-19T12:05:44.379Z,1.67
2023-05-19T12:08:14.701Z,1.67
2023-05-19T12:10:44.669Z,1.40
2023-05-19T12:13:17.816Z,1.63
2023-05-19T12:15:47.732Z,1.93
2023-05-19T12:18:17.557Z,1.77
2023-05-19T12:20:47.653Z,1.60
2023-05-19T12:23:17.701Z,1.97
2023-05-19T12:25:47.636Z,1.90
2023-05-19T12:28:20.015Z,1.47
2023-05-19T12:30:52.311Z,1.93
2023-05-19T12:33:22.996Z,2.23
2023-05-19T12:35:53.233Z,1.80
2023-05-19T12:38:23.409Z,1.83
2023-05-19T12:40:53.808Z,1.80
2023-05-19T12:43:26.930Z,1.80
2023-05-19T12:45:56.842Z,1.73
2023-05-19T12:48:26.704Z,1.73
2023-05-19T12:50:57.018Z,2.10
2023-05-19T12:53:29.745Z,2.40
2023-05-19T12:55:59.568Z,1.90
2023-05-19T12:58:31.950Z,2.40
2023-05-19T13:01:02.587Z,2.60
2023-05-19T13:03:32.481Z,1.43
2023-05-19T13:06:02.404Z,2.03
2023-05-19T13:08:32.155Z,1.90
2023-05-19T13:11:02.055Z,1.90
2023-05-19T13:13:35.485Z,1.87
2023-05-19T13:16:05.407Z,1.93
2023-05-19T13:18:37.944Z,2.07
2023-05-19T13:21:08.425Z,2.27
2023-05-19T13:23:38.245Z,1.90
2023-05-19T13:26:08.127Z,2.30
2023-05-19T13:28:40.533Z,2.40
2023-05-19T13:31:10.428Z,1.80
2023-05-19T13:33:40.266Z,1.60
2023-05-19T13:36:10.451Z,2.20
2023-05-19T13:38:42.033Z,2.10
2023-05-19T13:41:13.695Z,1.67
2023-05-19T13:43:46.487Z,1.70
2023-05-19T13:46:16.444Z,1.90
2023-05-19T13:48:46.435Z,1.40
2023-05-19T13:51:16.341Z,1.47
2023-05-19T13:53:46.163Z,1.63
2023-05-19T13:56:16.006Z,1.60
2023-05-19T13:58:48.402Z,1.50
2023-05-19T14:01:18.199Z,1.93
2023-05-19T14:03:48.489Z,1.63
2023-05-19T14:06:18.460Z,1.80
2023-05-19T14:08:48.708Z,1.53
2023-05-19T14:11:21.914Z,1.53
2023-05-19T14:13:54.453Z,1.60
2023-05-19T14:16:26.611Z,1.40
2023-05-19T14:18:56.493Z,1.30
2023-05-19T14:21:26.377Z,1.80
2023-05-19T14:23:56.244Z,1.50
2023-05-19T14:26:28.636Z,1.80
2023-05-19T14:29:02.595Z,1.87
2023-05-19T14:31:32.976Z,1.93
2023-05-19T14:34:02.932Z,1.90
2023-05-19T14:36:34.167Z,1.90
2023-05-19T14:39:04.170Z,1.77
2023-05-19T14:41:33.985Z,1.20
2023-05-19T14:44:06.685Z,1.73
2023-05-19T14:46:36.935Z,1.77
2023-05-19T14:49:06.880Z,1.20
2023-05-19T14:51:36.698Z,1.93
2023-05-19T14:54:06.737Z,2.10
2023-05-19T14:56:36.589Z,1.97
2023-05-19T14:59:09.011Z,1.40
2023-05-19T15:01:38.854Z,1.53
2023-05-19T15:04:08.795Z,2.00
2023-05-19T15:06:38.689Z,1.80
2023-05-19T15:09:08.539Z,1.40
2023-05-19T15:11:38.499Z,2.67
2023-05-19T15:14:10.932Z,1.57
2023-05-19T15:16:40.773Z,1.80
2023-05-19T15:19:10.677Z,1.47
2023-05-19T15:21:40.596Z,2.20
2023-05-19T15:24:10.624Z,1.60
2023-05-19T15:26:40.703Z,1.40
2023-05-19T15:29:13.120Z,1.50
2023-05-19T15:31:43.206Z,2.10
2023-05-19T15:34:13.134Z,1.97
2023-05-19T15:36:43.191Z,1.40
2023-05-19T15:39:13.006Z,1.40
2023-05-19T15:41:42.857Z,1.53
2023-05-19T15:44:15.250Z,2.00
2023-05-19T15:46:45.177Z,2.00
2023-05-19T15:49:15.025Z,1.93
2023-05-19T15:51:45.081Z,2.27
2023-05-19T15:54:14.969Z,1.60
2023-05-19T15:56:44.771Z,2.97
2023-05-19T15:59:17.209Z,1.80
2023-05-19T16:01:47.093Z,1.70
2023-05-19T16:04:17.965Z,1.67
2023-05-19T16:06:47.862Z,1.50
2023-05-19T16:09:17.766Z,2.40
2023-05-19T16:11:47.583Z,2.90
2023-05-19T16:14:20.049Z,2.73
2023-05-19T16:16:49.950Z,1.90
2023-05-19T16:19:19.912Z,2.00
2023-05-19T16:21:50.087Z,1.70
2023-05-19T16:24:19.914Z,1.60
2023-05-19T16:26:49.722Z,2.00
2023-05-19T16:29:22.153Z,1.53
2023-05-19T16:31:52.140Z,1.70
2023-05-19T16:34:22.039Z,1.50
2023-05-19T16:36:51.860Z,1.63
2023-05-19T16:39:21.726Z,1.43
2023-05-19T16:41:52.977Z,1.90
2023-05-19T16:44:25.835Z,1.63
2023-05-19T16:46:55.699Z,1.70
2023-05-19T16:49:25.557Z,1.67
2023-05-19T16:51:56.029Z,1.50
2023-05-19T16:54:26.062Z,2.53
2023-05-19T16:56:55.891Z,1.70
2023-05-19T16:59:28.456Z,2.13
2023-05-19T17:01:58.925Z,1.67
2023-05-19T17:04:30.738Z,1.27
2023-05-19T17:07:01.065Z,1.80
2023-05-19T17:09:31.493Z,1.60
2023-05-19T17:12:01.320Z,1.43
2023-05-19T17:14:33.722Z,1.80
2023-05-19T17:17:03.663Z,1.70
2023-05-19T17:19:33.643Z,2.03
2023-05-19T17:22:04.039Z,2.30
2023-05-19T17:24:33.890Z,2.50
2023-05-19T17:27:03.852Z,1.70
2023-05-19T17:29:36.892Z,1.43
2023-05-19T17:32:07.569Z,1.60
2023-05-19T17:34:37.424Z,1.70
2023-05-19T17:37:07.774Z,1.47
2023-05-19T17:39:37.590Z,1.30
2023-05-19T17:42:08.266Z,1.57
2023-05-19T17:44:41.539Z,1.80
2023-05-19T17:47:11.433Z,1.30
2023-05-19T17:49:41.598Z,1.73
2023-05-19T17:52:12.881Z,2.30
2023-05-19T17:54:43.073Z,1.60
2023-05-19T17:57:14.912Z,1.67
2023-05-19T17:59:48.105Z,1.50
2023-05-19T18:02:18.794Z,1.73
2023-05-19T18:04:49.414Z,1.80
2023-05-19T18:07:21.060Z,1.40
2023-05-19T18:09:52.392Z,1.57
2023-05-19T18:12:22.923Z,1.57
2023-05-19T18:14:55.369Z,1.80
2023-05-19T18:17:25.244Z,1.20
2023-05-19T18:19:55.094Z,1.63
2023-05-19T18:22:24.881Z,1.43
2023-05-19T18:24:54.795Z,1.60
2023-05-19T18:27:24.622Z,1.63
2023-05-19T18:29:57.043Z,1.70
2023-05-19T18:32:27.099Z,1.30
2023-05-19T18:34:56.937Z,1.53
2023-05-19T18:37:26.817Z,1.90
2023-05-19T18:39:56.657Z,2.13
2023-05-19T18:42:26.551Z,1.43
2023-05-19T18:44:59.034Z,1.90
2023-05-19T18:47:29.018Z,1.43
2023-05-19T18:49:59.096Z,1.77
2023-05-19T18:52:30.990Z,1.50
2023-05-19T18:55:01.346Z,1.87
2023-05-19T18:57:31.461Z,2.07
2023-05-19T19:00:04.472Z,2.13
2023-05-19T19:02:35.672Z,2.17
2023-05-19T19:05:09.635Z,1.70
2023-05-19T19:07:43.335Z,2.23
2023-05-19T19:10:15.323Z,2.33
2023-05-19T19:12:45.241Z,1.73
2023-05-19T19:15:17.715Z,1.90
2023-05-19T19:17:47.651Z,1.47
2023-05-19T19:20:17.598Z,1.70
2023-05-19T19:22:47.569Z,1.73
2023-05-19T19:25:17.592Z,2.20
2023-05-19T19:27:47.418Z,2.13
2023-05-19T19:30:20.168Z,1.67
2023-05-19T19:32:50.048Z,1.87
2023-05-19T19:35:20.156Z,1.63
2023-05-19T19:37:51.834Z,1.73
2023-05-19T19:40:21.882Z,1.80
2023-05-19T19:42:51.679Z,1.80
2023-05-19T19:45:24.108Z,1.77
2023-05-19T19:47:54.559Z,1.33
2023-05-19T19:50:24.477Z,1.70
2023-05-19T19:52:54.329Z,2.27
2023-05-19T19:55:24.248Z,1.70
2023-05-19T19:57:54.163Z,2.13
2023-05-19T20:00:27.001Z,1.73
2023-05-19T20:03:05.241Z,1.57
2023-05-19T20:05:36.132Z,1.57
2023-05-19T20:08:05.927Z,1.60
2023-05-19T20:10:35.929Z,1.90
2023-05-19T20:13:05.915Z,1.80
2023-05-19T20:15:38.438Z,1.87
2023-05-19T20:18:08.473Z,1.70
2023-05-19T20:20:38.459Z,1.40
2023-05-19T20:23:08.820Z,1.53
2023-05-19T20:25:57.850Z,1.77
2023-05-19T20:28:32.788Z,1.83
2023-05-19T20:31:05.325Z,1.43
2023-05-19T20:33:35.298Z,1.90
2023-05-19T20:36:05.256Z,1.93
2023-05-19T20:38:35.101Z,1.80
2023-05-19T20:41:04.976Z,2.27
2023-05-19T20:43:35.387Z,1.83
2023-05-19T20:46:07.896Z,1.73
2023-05-19T20:48:37.748Z,1.90
2023-05-19T20:51:07.903Z,2.20
2023-05-19T20:53:37.763Z,1.50
2023-05-19T20:56:10.612Z,1.70
2023-05-19T20:58:40.771Z,1.93
2023-05-19T21:01:13.210Z,1.87
2023-05-19T21:03:43.129Z,1.53
2023-05-19T21:06:13.034Z,1.83
2023-05-19T21:08:42.834Z,1.97
2023-05-19T21:11:12.661Z,2.33
2023-05-19T21:13:43.509Z,2.10
2023-05-19T21:16:15.945Z,1.90
2023-05-19T21:18:45.880Z,2.70
2023-05-19T21:21:15.773Z,2.53
2023-05-19T21:23:45.557Z,2.00
2023-05-19T21:26:15.595Z,2.37
2023-05-19T21:28:45.440Z,1.80
2023-05-19T21:31:18.126Z,2.03
2023-05-19T21:33:47.975Z,2.30
2023-05-19T21:36:18.462Z,1.97
2023-05-19T21:38:48.259Z,1.60
2023-05-19T21:41:18.209Z,1.83
2023-05-19T21:43:48.005Z,1.87
2023-05-19T21:46:20.544Z,1.43
2023-05-19T21:48:50.385Z,2.10
2023-05-19T21:51:20.258Z,1.53
2023-05-19T21:53:50.067Z,1.40
2023-05-19T21:56:19.886Z,1.97
2023-05-19T21:58:49.688Z,1.80
2023-05-19T22:01:22.471Z,2.13
2023-05-19T22:03:52.569Z,2.00
2023-05-19T22:06:22.477Z,1.90
2023-05-19T22:08:52.336Z,1.90
2023-05-19T22:11:22.155Z,2.00
2023-05-19T22:13:54.850Z,1.87
2023-05-19T22:16:27.301Z,2.27
2023-05-19T22:18:57.219Z,2.40
2023-05-19T22:21:27.201Z,2.60
2023-05-19T22:23:57.028Z,1.83
2023-05-19T22:26:27.420Z,2.07
2023-05-19T22:28:58.095Z,1.87
2023-05-19T22:31:31.332Z,2.30
2023-05-19T22:34:01.189Z,1.83
2023-05-19T22:36:31.392Z,2.37
2023-05-19T22:39:01.247Z,1.77
2023-05-19T22:41:31.112Z,1.60
2023-05-19T22:44:00.995Z,1.57
2023-05-19T22:46:34.338Z,1.70
2023-05-19T22:49:04.228Z,1.83
2023-05-19T22:51:34.143Z,2.00
2023-05-19T22:54:04.147Z,3.27
2023-05-19T22:56:34.008Z,1.60
2023-05-19T22:59:03.798Z,1.93
2023-05-19T23:01:36.473Z,2.07
2023-05-19T23:04:06.551Z,2.20
2023-05-19T23:06:36.396Z,2.30
2023-05-19T23:09:07.324Z,2.00
2023-05-19T23:11:37.175Z,1.80
2023-05-19T23:14:07.066Z,2.23
2023-05-19T23:16:39.534Z,1.90
2023-05-19T23:19:09.492Z,2.10
2023-05-19T23:21:39.318Z,1.70
2023-05-19T23:24:09.561Z,1.93
2023-05-19T23:26:39.413Z,1.70
2023-05-19T23:29:09.299Z,2.00
2023-05-19T23:31:41.832Z,2.40
2023-05-19T23:34:11.759Z,2.00
2023-05-19T23:36:41.621Z,2.10
2023-05-19T23:39:11.510Z,2.00
2023-05-19T23:41:41.445Z,1.90
2023-05-19T23:44:11.547Z,2.30
2023-05-19T23:46:43.992Z,2.43
2023-05-19T23:49:14.666Z,1.80
2023-05-19T23:51:44.511Z,1.70
2023-05-19T23:54:14.326Z,2.23
2023-05-19T23:56:44.221Z,1.80
2023-05-19T23:59:14.160Z,2.07
